Terminal Aerodrome Forecast
Issued by NWS

Home | Current Version | Previous Version | Text Only | Print | Product List | Glossary On
Versions: 1 2 3 4 5 6 7 8 9 10 11 12 13
087
FTUS46 KMTR 282340
TAFOAK
TAF
KOAK 282340Z 2900/3006 31016KT P6SM FEW008 FEW180
     FM290400 30008KT P6SM FEW008
     FM290800 30005KT P6SM BKN008
     FM291200 28006KT P6SM OVC007
     FM291700 27006KT P6SM BKN015
     FM291900 28012KT P6SM FEW015
     FM300300 30010KT P6SM FEW008=

USA.gov is the U.S. government's official web portal to all federal, state and local government web resources and services.